Unicom:                    122.8

AWOS:                  118.275

Elevation           1458’ MSL

TPA:                   2500’ MSL

06/24:         5003’ L   75’ W

PAPI:       06/Left     24/Left

(Operate lights on unicom freq.)

Traffic Pattern: Left

Beacon: Sunset to Sunrise

Windsock: yes, lighted

Segmented Circle: No

 

Cleveland Center: 126.72/291.65

FSS: Altoona

[Source: ADDS]
METAR
KFKL 031156Z AUTO VRB03KT 10SM CLR 22/17 A3004 RMK AO2 SLP162 7//// T02170167 10217 20172 53007 =
KFKL 031127Z 0312/0412 VRB03KT P6SM SKC FM031500 30005KT P6SM SCT060
TAF
KFKL 031127Z 0312/0412 VRB03KT P6SM SKC FM031500 30005KT P6SM SCT060 =
[Source: ADDS]
METAR
KDUJ 031153Z AUTO 25005KT 10SM CLR 19/16 A3003 RMK AO2 SLP154 T01940156 10194 20156 51008 =
KDUJ 031127Z 0312/0412 28004KT P6SM SKC FM031500 30010KT P6SM SCT060
TAF
KDUJ 031127Z 0312/0412 28004KT P6SM SKC FM031500 30010KT P6SM SCT060 =

Development areas as listed in the Pennsylvania Department of Transportation,

Bureau of Aviation Airport Properties Directory

 

Area 1 - 7 acre area for development needing access to runway 

Area 2 - 7 acre area for development not needing access to runway

There are several other Industrial Development areas available on the airport, and at other sites with easy access to the airport.

Please contact the Clarion County Airport Authority at (814) 226 - 9993, or manager@clarionairport.com

You can also contact the Clarion County Economic Development Corporation at (814) 226 - 9045.

 

Resourceful Links:

Clarion Chamber of Commerce https://www.clarionpa.com/

Clarion County Economic Development Corporation http://www.callclarionpa.com/